sensor_id;sensor_type;location;lat;lon;timestamp;P1;durP1;ratioP1;P2;durP2;ratioP2
63784;SDS011;49927;48.146;11.420;2022-08-11T00:02:25;5.13;;;3.55;;
63784;SDS011;49927;48.146;11.420;2022-08-11T00:04:53;4.72;;;3.42;;
63784;SDS011;49927;48.146;11.420;2022-08-11T00:07:20;4.07;;;3.65;;
63784;SDS011;49927;48.146;11.420;2022-08-11T00:09:45;5.05;;;3.78;;
63784;SDS011;49927;48.146;11.420;2022-08-11T00:12:12;6.22;;;3.15;;
63784;SDS011;49927;48.146;11.420;2022-08-11T00:14:38;3.80;;;3.40;;
63784;SDS011;49927;48.146;11.420;2022-08-11T00:17:08;5.20;;;3.67;;
63784;SDS011;49927;48.146;11.420;2022-08-11T00:19:36;5.53;;;3.08;;
63784;SDS011;49927;48.146;11.420;2022-08-11T00:22:08;5.10;;;3.35;;
63784;SDS011;49927;48.146;11.420;2022-08-11T00:24:34;3.40;;;3.00;;
63784;SDS011;49927;48.146;11.420;2022-08-11T00:27:01;4.15;;;3.45;;
63784;SDS011;49927;48.146;11.420;2022-08-11T00:29:27;5.88;;;3.42;;
63784;SDS011;49927;48.146;11.420;2022-08-11T00:31:54;3.83;;;3.33;;
63784;SDS011;49927;48.146;11.420;2022-08-11T00:34:24;5.40;;;3.58;;
63784;SDS011;49927;48.146;11.420;2022-08-11T00:36:52;4.07;;;3.20;;
63784;SDS011;49927;48.146;11.420;2022-08-11T00:39:21;5.25;;;3.20;;
63784;SDS011;49927;48.146;11.420;2022-08-11T00:41:54;3.97;;;3.53;;
63784;SDS011;49927;48.146;11.420;2022-08-11T00:44:30;3.70;;;3.40;;
63784;SDS011;49927;48.146;11.420;2022-08-11T00:47:04;6.05;;;3.95;;
63784;SDS011;49927;48.146;11.420;2022-08-11T00:49:42;7.28;;;3.75;;
63784;SDS011;49927;48.146;11.420;2022-08-11T00:52:23;6.22;;;3.58;;
63784;SDS011;49927;48.146;11.420;2022-08-11T01:00:59;3.92;;;3.38;;
63784;SDS011;49927;48.146;11.420;2022-08-11T01:03:33;5.45;;;4.40;;
63784;SDS011;49927;48.146;11.420;2022-08-11T01:06:35;4.05;;;3.58;;
63784;SDS011;49927;48.146;11.420;2022-08-11T01:09:20;4.35;;;3.90;;
63784;SDS011;49927;48.146;11.420;2022-08-11T01:12:08;7.97;;;3.88;;
63784;SDS011;49927;48.146;11.420;2022-08-11T01:18:06;5.60;;;3.40;;
63784;SDS011;49927;48.146;11.420;2022-08-11T01:21:05;6.07;;;3.78;;
63784;SDS011;49927;48.146;11.420;2022-08-11T01:24:00;4.18;;;3.47;;
63784;SDS011;49927;48.146;11.420;2022-08-11T01:27:03;6.68;;;3.78;;
63784;SDS011;49927;48.146;11.420;2022-08-11T01:35:34;5.13;;;3.30;;
63784;SDS011;49927;48.146;11.420;2022-08-11T01:38:25;5.32;;;3.80;;
63784;SDS011;49927;48.146;11.420;2022-08-11T01:41:25;4.93;;;3.60;;
63784;SDS011;49927;48.146;11.420;2022-08-11T01:44:08;7.75;;;3.58;;
63784;SDS011;49927;48.146;11.420;2022-08-11T01:46:42;4.05;;;3.60;;
63784;SDS011;49927;48.146;11.420;2022-08-11T01:49:11;4.93;;;3.40;;
63784;SDS011;49927;48.146;11.420;2022-08-11T01:51:48;5.05;;;3.75;;
63784;SDS011;49927;48.146;11.420;2022-08-11T01:54:26;4.50;;;4.07;;
63784;SDS011;49927;48.146;11.420;2022-08-11T01:56:57;7.85;;;4.72;;
63784;SDS011;49927;48.146;11.420;2022-08-11T01:59:34;4.88;;;3.90;;
63784;SDS011;49927;48.146;11.420;2022-08-11T02:02:17;6.05;;;3.58;;
63784;SDS011;49927;48.146;11.420;2022-08-11T02:04:52;7.00;;;3.72;;
63784;SDS011;49927;48.146;11.420;2022-08-11T02:07:25;6.57;;;4.68;;
63784;SDS011;49927;48.146;11.420;2022-08-11T02:10:01;5.05;;;3.80;;
63784;SDS011;49927;48.146;11.420;2022-08-11T02:12:37;4.32;;;3.55;;
63784;SDS011;49927;48.146;11.420;2022-08-11T02:15:07;7.03;;;4.00;;
63784;SDS011;49927;48.146;11.420;2022-08-11T02:17:40;5.20;;;3.97;;
63784;SDS011;49927;48.146;11.420;2022-08-11T02:20:14;5.32;;;4.22;;
63784;SDS011;49927;48.146;11.420;2022-08-11T02:22:48;5.35;;;3.85;;
63784;SDS011;49927;48.146;11.420;2022-08-11T02:25:20;5.38;;;3.92;;
63784;SDS011;49927;48.146;11.420;2022-08-11T02:27:51;6.63;;;3.97;;
63784;SDS011;49927;48.146;11.420;2022-08-11T02:30:21;5.97;;;3.92;;
63784;SDS011;49927;48.146;11.420;2022-08-11T02:32:49;7.35;;;4.45;;
63784;SDS011;49927;48.146;11.420;2022-08-11T02:35:17;4.85;;;4.35;;
63784;SDS011;49927;48.146;11.420;2022-08-11T02:37:51;5.28;;;4.38;;
63784;SDS011;49927;48.146;11.420;2022-08-11T02:40:28;8.32;;;4.45;;
63784;SDS011;49927;48.146;11.420;2022-08-11T02:43:03;5.95;;;4.45;;
63784;SDS011;49927;48.146;11.420;2022-08-11T02:45:36;5.13;;;4.07;;
63784;SDS011;49927;48.146;11.420;2022-08-11T02:48:09;5.90;;;4.85;;
63784;SDS011;49927;48.146;11.420;2022-08-11T02:50:39;5.22;;;4.43;;
63784;SDS011;49927;48.146;11.420;2022-08-11T02:53:10;5.43;;;4.30;;
63784;SDS011;49927;48.146;11.420;2022-08-11T02:55:46;4.68;;;4.07;;
63784;SDS011;49927;48.146;11.420;2022-08-11T02:58:26;5.03;;;4.38;;
63784;SDS011;49927;48.146;11.420;2022-08-11T03:01:00;5.80;;;3.88;;
63784;SDS011;49927;48.146;11.420;2022-08-11T03:03:32;5.78;;;4.53;;
63784;SDS011;49927;48.146;11.420;2022-08-11T03:06:04;8.40;;;4.82;;
63784;SDS011;49927;48.146;11.420;2022-08-11T03:08:42;6.78;;;4.80;;
63784;SDS011;49927;48.146;11.420;2022-08-11T03:11:13;4.65;;;4.20;;
63784;SDS011;49927;48.146;11.420;2022-08-11T03:13:42;7.50;;;4.70;;
63784;SDS011;49927;48.146;11.420;2022-08-11T03:16:14;7.15;;;4.35;;
63784;SDS011;49927;48.146;11.420;2022-08-11T03:18:44;5.30;;;4.60;;
63784;SDS011;49927;48.146;11.420;2022-08-11T03:21:16;8.32;;;5.00;;
63784;SDS011;49927;48.146;11.420;2022-08-11T03:23:49;5.15;;;4.65;;
63784;SDS011;49927;48.146;11.420;2022-08-11T03:26:22;6.90;;;4.70;;
63784;SDS011;49927;48.146;11.420;2022-08-11T03:28:50;8.25;;;5.82;;
63784;SDS011;49927;48.146;11.420;2022-08-11T03:31:22;4.53;;;4.10;;
63784;SDS011;49927;48.146;11.420;2022-08-11T03:33:50;5.57;;;5.07;;
63784;SDS011;49927;48.146;11.420;2022-08-11T03:36:22;5.90;;;5.28;;
63784;SDS011;49927;48.146;11.420;2022-08-11T03:39:11;9.25;;;5.10;;
63784;SDS011;49927;48.146;11.420;2022-08-11T03:41:41;6.40;;;5.38;;
63784;SDS011;49927;48.146;11.420;2022-08-11T03:44:17;7.80;;;5.18;;
63784;SDS011;49927;48.146;11.420;2022-08-11T03:46:57;9.23;;;5.57;;
63784;SDS011;49927;48.146;11.420;2022-08-11T03:49:30;10.63;;;5.20;;
63784;SDS011;49927;48.146;11.420;2022-08-11T03:52:17;5.93;;;5.05;;
63784;SDS011;49927;48.146;11.420;2022-08-11T03:55:03;6.25;;;5.30;;
63784;SDS011;49927;48.146;11.420;2022-08-11T04:03:24;6.50;;;5.50;;
63784;SDS011;49927;48.146;11.420;2022-08-11T04:12:25;8.10;;;5.30;;
63784;SDS011;49927;48.146;11.420;2022-08-11T04:18:17;6.00;;;4.72;;
63784;SDS011;49927;48.146;11.420;2022-08-11T04:21:08;6.55;;;5.35;;
63784;SDS011;49927;48.146;11.420;2022-08-11T04:23:42;7.15;;;4.80;;
63784;SDS011;49927;48.146;11.420;2022-08-11T04:26:29;6.40;;;4.88;;
63784;SDS011;49927;48.146;11.420;2022-08-11T04:29:16;6.65;;;5.38;;
63784;SDS011;49927;48.146;11.420;2022-08-11T04:31:55;7.68;;;5.72;;
63784;SDS011;49927;48.146;11.420;2022-08-11T04:34:32;7.03;;;5.50;;
63784;SDS011;49927;48.146;11.420;2022-08-11T04:37:08;8.83;;;5.80;;
63784;SDS011;49927;48.146;11.420;2022-08-11T04:39:46;5.70;;;5.10;;
63784;SDS011;49927;48.146;11.420;2022-08-11T04:48:18;8.85;;;5.88;;
63784;SDS011;49927;48.146;11.420;2022-08-11T04:50:55;9.07;;;5.95;;
63784;SDS011;49927;48.146;11.420;2022-08-11T04:53:28;6.95;;;5.78;;
63784;SDS011;49927;48.146;11.420;2022-08-11T04:56:01;6.88;;;6.00;;
63784;SDS011;49927;48.146;11.420;2022-08-11T04:58:35;7.68;;;6.13;;
63784;SDS011;49927;48.146;11.420;2022-08-11T05:01:17;8.25;;;5.78;;
63784;SDS011;49927;48.146;11.420;2022-08-11T05:04:06;6.95;;;5.47;;
63784;SDS011;49927;48.146;11.420;2022-08-11T05:06:56;6.55;;;5.75;;
63784;SDS011;49927;48.146;11.420;2022-08-11T05:09:37;8.90;;;5.82;;
63784;SDS011;49927;48.146;11.420;2022-08-11T05:12:16;8.35;;;5.70;;
63784;SDS011;49927;48.146;11.420;2022-08-11T05:14:49;10.85;;;5.78;;
63784;SDS011;49927;48.146;11.420;2022-08-11T05:20:02;8.57;;;5.72;;
63784;SDS011;49927;48.146;11.420;2022-08-11T05:22:28;9.63;;;5.32;;
63784;SDS011;49927;48.146;11.420;2022-08-11T05:24:56;8.02;;;5.90;;
63784;SDS011;49927;48.146;11.420;2022-08-11T05:27:28;6.50;;;5.10;;
63784;SDS011;49927;48.146;11.420;2022-08-11T05:29:56;8.25;;;6.32;;
63784;SDS011;49927;48.146;11.420;2022-08-11T05:32:26;6.00;;;5.43;;
63784;SDS011;49927;48.146;11.420;2022-08-11T05:34:57;7.40;;;6.00;;
63784;SDS011;49927;48.146;11.420;2022-08-11T05:37:30;6.15;;;5.45;;
63784;SDS011;49927;48.146;11.420;2022-08-11T05:39:59;11.40;;;5.53;;
63784;SDS011;49927;48.146;11.420;2022-08-11T05:42:31;7.40;;;5.70;;
63784;SDS011;49927;48.146;11.420;2022-08-11T05:45:00;8.35;;;5.35;;
63784;SDS011;49927;48.146;11.420;2022-08-11T05:47:29;9.98;;;5.80;;
63784;SDS011;49927;48.146;11.420;2022-08-11T05:49:55;9.77;;;5.75;;
63784;SDS011;49927;48.146;11.420;2022-08-11T05:52:23;8.18;;;5.70;;
63784;SDS011;49927;48.146;11.420;2022-08-11T05:54:49;8.32;;;5.80;;
63784;SDS011;49927;48.146;11.420;2022-08-11T05:57:18;13.27;;;4.95;;
63784;SDS011;49927;48.146;11.420;2022-08-11T05:59:45;5.88;;;4.82;;
63784;SDS011;49927;48.146;11.420;2022-08-11T06:02:11;7.70;;;4.90;;
63784;SDS011;49927;48.146;11.420;2022-08-11T06:04:37;6.10;;;5.38;;
63784;SDS011;49927;48.146;11.420;2022-08-11T06:07:03;7.13;;;5.95;;
63784;SDS011;49927;48.146;11.420;2022-08-11T06:09:33;6.47;;;4.70;;
63784;SDS011;49927;48.146;11.420;2022-08-11T06:12:01;7.22;;;4.93;;
63784;SDS011;49927;48.146;11.420;2022-08-11T06:14:28;5.85;;;4.65;;
63784;SDS011;49927;48.146;11.420;2022-08-11T06:16:55;8.38;;;4.30;;
63784;SDS011;49927;48.146;11.420;2022-08-11T06:19:22;6.28;;;4.68;;
63784;SDS011;49927;48.146;11.420;2022-08-11T06:21:56;8.30;;;4.57;;
63784;SDS011;49927;48.146;11.420;2022-08-11T06:24:22;7.60;;;5.03;;
63784;SDS011;49927;48.146;11.420;2022-08-11T06:26:50;5.40;;;4.75;;
63784;SDS011;49927;48.146;11.420;2022-08-11T06:29:16;9.57;;;5.10;;
63784;SDS011;49927;48.146;11.420;2022-08-11T06:31:42;4.90;;;4.15;;
63784;SDS011;49927;48.146;11.420;2022-08-11T06:34:09;5.75;;;4.20;;
63784;SDS011;49927;48.146;11.420;2022-08-11T06:36:39;6.57;;;4.18;;
63784;SDS011;49927;48.146;11.420;2022-08-11T06:39:13;9.20;;;5.00;;
63784;SDS011;49927;48.146;11.420;2022-08-11T06:41:44;6.47;;;4.13;;
63784;SDS011;49927;48.146;11.420;2022-08-11T06:44:17;7.30;;;5.00;;
63784;SDS011;49927;48.146;11.420;2022-08-11T06:46:48;5.40;;;4.40;;
63784;SDS011;49927;48.146;11.420;2022-08-11T06:49:16;4.72;;;3.85;;
63784;SDS011;49927;48.146;11.420;2022-08-11T06:51:46;5.05;;;3.65;;
63784;SDS011;49927;48.146;11.420;2022-08-11T06:54:11;5.50;;;4.53;;
63784;SDS011;49927;48.146;11.420;2022-08-11T06:56:37;5.55;;;4.22;;
63784;SDS011;49927;48.146;11.420;2022-08-11T06:59:04;7.45;;;4.72;;
63784;SDS011;49927;48.146;11.420;2022-08-11T07:01:35;6.30;;;4.57;;
63784;SDS011;49927;48.146;11.420;2022-08-11T07:04:05;5.90;;;4.55;;
63784;SDS011;49927;48.146;11.420;2022-08-11T07:06:35;5.18;;;4.35;;
63784;SDS011;49927;48.146;11.420;2022-08-11T07:09:27;7.05;;;4.50;;
63784;SDS011;49927;48.146;11.420;2022-08-11T07:14:32;7.85;;;4.72;;
63784;SDS011;49927;48.146;11.420;2022-08-11T07:17:00;5.10;;;4.15;;
63784;SDS011;49927;48.146;11.420;2022-08-11T07:19:27;6.43;;;4.72;;
63784;SDS011;49927;48.146;11.420;2022-08-11T07:21:54;5.05;;;4.15;;
63784;SDS011;49927;48.146;11.420;2022-08-11T07:24:21;7.05;;;4.18;;
63784;SDS011;49927;48.146;11.420;2022-08-11T07:26:50;6.00;;;4.85;;
63784;SDS011;49927;48.146;11.420;2022-08-11T07:29:17;5.72;;;4.35;;
63784;SDS011;49927;48.146;11.420;2022-08-11T07:31:45;7.30;;;4.00;;
63784;SDS011;49927;48.146;11.420;2022-08-11T07:34:18;5.10;;;4.30;;
63784;SDS011;49927;48.146;11.420;2022-08-11T07:36:47;8.25;;;4.10;;
63784;SDS011;49927;48.146;11.420;2022-08-11T07:39:15;7.03;;;4.47;;
63784;SDS011;49927;48.146;11.420;2022-08-11T07:41:44;6.60;;;4.57;;
63784;SDS011;49927;48.146;11.420;2022-08-11T07:44:10;5.18;;;4.68;;
63784;SDS011;49927;48.146;11.420;2022-08-11T07:46:38;6.13;;;4.18;;
63784;SDS011;49927;48.146;11.420;2022-08-11T07:49:05;4.85;;;4.20;;
63784;SDS011;49927;48.146;11.420;2022-08-11T07:51:33;10.30;;;4.45;;
63784;SDS011;49927;48.146;11.420;2022-08-11T07:54:00;4.40;;;4.00;;
63784;SDS011;49927;48.146;11.420;2022-08-11T07:56:25;5.53;;;3.65;;
63784;SDS011;49927;48.146;11.420;2022-08-11T07:58:51;4.93;;;4.47;;
63784;SDS011;49927;48.146;11.420;2022-08-11T08:01:17;6.93;;;4.60;;
63784;SDS011;49927;48.146;11.420;2022-08-11T08:03:43;6.50;;;4.35;;
63784;SDS011;49927;48.146;11.420;2022-08-11T08:06:09;4.60;;;4.10;;
63784;SDS011;49927;48.146;11.420;2022-08-11T08:08:37;5.75;;;3.67;;
63784;SDS011;49927;48.146;11.420;2022-08-11T08:11:04;4.85;;;4.10;;
63784;SDS011;49927;48.146;11.420;2022-08-11T08:13:30;9.95;;;3.97;;
63784;SDS011;49927;48.146;11.420;2022-08-11T08:15:56;5.75;;;3.55;;
63784;SDS011;49927;48.146;11.420;2022-08-11T08:18:22;6.45;;;4.03;;
63784;SDS011;49927;48.146;11.420;2022-08-11T08:20:48;5.38;;;3.70;;
63784;SDS011;49927;48.146;11.420;2022-08-11T08:23:15;8.48;;;3.92;;
63784;SDS011;49927;48.146;11.420;2022-08-11T08:25:43;7.68;;;4.28;;
63784;SDS011;49927;48.146;11.420;2022-08-11T08:28:09;5.43;;;3.58;;
63784;SDS011;49927;48.146;11.420;2022-08-11T08:30:37;5.15;;;3.28;;
63784;SDS011;49927;48.146;11.420;2022-08-11T08:33:02;5.03;;;3.95;;
63784;SDS011;49927;48.146;11.420;2022-08-11T08:35:29;7.00;;;4.50;;
63784;SDS011;49927;48.146;11.420;2022-08-11T08:37:54;8.40;;;4.38;;
63784;SDS011;49927;48.146;11.420;2022-08-11T08:40:20;8.88;;;4.30;;
63784;SDS011;49927;48.146;11.420;2022-08-11T08:42:48;5.63;;;4.20;;
63784;SDS011;49927;48.146;11.420;2022-08-11T08:45:14;5.60;;;3.80;;
63784;SDS011;49927;48.146;11.420;2022-08-11T08:47:40;5.85;;;4.15;;
63784;SDS011;49927;48.146;11.420;2022-08-11T08:50:08;6.25;;;3.67;;
63784;SDS011;49927;48.146;11.420;2022-08-11T08:52:36;6.72;;;3.90;;
63784;SDS011;49927;48.146;11.420;2022-08-11T08:55:03;4.28;;;3.55;;
63784;SDS011;49927;48.146;11.420;2022-08-11T08:57:30;4.40;;;3.85;;
63784;SDS011;49927;48.146;11.420;2022-08-11T08:59:59;4.90;;;3.38;;
63784;SDS011;49927;48.146;11.420;2022-08-11T09:02:25;6.53;;;3.92;;
63784;SDS011;49927;48.146;11.420;2022-08-11T09:04:51;4.15;;;3.58;;
63784;SDS011;49927;48.146;11.420;2022-08-11T09:07:17;6.32;;;3.95;;
63784;SDS011;49927;48.146;11.420;2022-08-11T09:09:44;3.88;;;3.58;;
63784;SDS011;49927;48.146;11.420;2022-08-11T09:12:12;6.55;;;4.18;;
63784;SDS011;49927;48.146;11.420;2022-08-11T09:14:39;6.30;;;4.20;;
63784;SDS011;49927;48.146;11.420;2022-08-11T09:17:07;5.22;;;3.67;;
63784;SDS011;49927;48.146;11.420;2022-08-11T09:19:33;6.05;;;3.83;;
63784;SDS011;49927;48.146;11.420;2022-08-11T09:21:58;6.07;;;3.80;;
63784;SDS011;49927;48.146;11.420;2022-08-11T09:24:24;6.80;;;3.83;;
63784;SDS011;49927;48.146;11.420;2022-08-11T09:26:49;6.13;;;4.30;;
63784;SDS011;49927;48.146;11.420;2022-08-11T09:29:16;8.20;;;4.57;;
63784;SDS011;49927;48.146;11.420;2022-08-11T09:31:41;5.43;;;3.67;;
63784;SDS011;49927;48.146;11.420;2022-08-11T09:34:09;5.32;;;3.47;;
63784;SDS011;49927;48.146;11.420;2022-08-11T09:36:34;3.95;;;3.58;;
63784;SDS011;49927;48.146;11.420;2022-08-11T09:39:03;5.53;;;3.60;;
63784;SDS011;49927;48.146;11.420;2022-08-11T09:41:29;4.68;;;3.78;;
63784;SDS011;49927;48.146;11.420;2022-08-11T09:43:55;4.55;;;3.25;;
63784;SDS011;49927;48.146;11.420;2022-08-11T09:46:22;5.25;;;4.07;;
63784;SDS011;49927;48.146;11.420;2022-08-11T09:48:48;8.15;;;4.15;;
63784;SDS011;49927;48.146;11.420;2022-08-11T09:51:16;7.85;;;3.28;;
63784;SDS011;49927;48.146;11.420;2022-08-11T09:53:42;5.60;;;3.92;;
63784;SDS011;49927;48.146;11.420;2022-08-11T09:56:09;4.00;;;3.50;;
63784;SDS011;49927;48.146;11.420;2022-08-11T09:58:35;5.55;;;3.45;;
63784;SDS011;49927;48.146;11.420;2022-08-11T10:01:01;5.22;;;3.75;;
63784;SDS011;49927;48.146;11.420;2022-08-11T10:03:27;3.60;;;3.28;;
63784;SDS011;49927;48.146;11.420;2022-08-11T10:05:54;5.32;;;3.65;;
63784;SDS011;49927;48.146;11.420;2022-08-11T10:08:25;3.60;;;3.10;;
63784;SDS011;49927;48.146;11.420;2022-08-11T10:10:52;6.25;;;3.30;;
63784;SDS011;49927;48.146;11.420;2022-08-11T10:13:19;3.65;;;3.35;;
63784;SDS011;49927;48.146;11.420;2022-08-11T10:15:45;3.65;;;3.30;;
63784;SDS011;49927;48.146;11.420;2022-08-11T10:18:13;4.88;;;3.30;;
63784;SDS011;49927;48.146;11.420;2022-08-11T10:20:40;3.55;;;3.25;;
63784;SDS011;49927;48.146;11.420;2022-08-11T10:23:06;3.88;;;3.13;;
63784;SDS011;49927;48.146;11.420;2022-08-11T10:25:35;4.50;;;3.83;;
63784;SDS011;49927;48.146;11.420;2022-08-11T10:28:02;4.43;;;2.90;;
63784;SDS011;49927;48.146;11.420;2022-08-11T10:30:28;2.90;;;2.60;;
63784;SDS011;49927;48.146;11.420;2022-08-11T10:32:54;2.80;;;2.60;;
63784;SDS011;49927;48.146;11.420;2022-08-11T10:35:20;3.45;;;2.30;;
63784;SDS011;49927;48.146;11.420;2022-08-11T10:37:46;4.93;;;2.55;;
63784;SDS011;49927;48.146;11.420;2022-08-11T10:40:12;2.75;;;2.55;;
63784;SDS011;49927;48.146;11.420;2022-08-11T10:42:40;2.95;;;2.63;;
63784;SDS011;49927;48.146;11.420;2022-08-11T10:45:06;3.00;;;2.47;;
63784;SDS011;49927;48.146;11.420;2022-08-11T10:47:33;5.22;;;2.53;;
63784;SDS011;49927;48.146;11.420;2022-08-11T10:49:58;3.45;;;2.88;;
63784;SDS011;49927;48.146;11.420;2022-08-11T10:52:25;5.28;;;2.83;;
63784;SDS011;49927;48.146;11.420;2022-08-11T10:54:52;3.58;;;2.80;;
63784;SDS011;49927;48.146;11.420;2022-08-11T10:57:17;4.40;;;2.63;;
63784;SDS011;49927;48.146;11.420;2022-08-11T10:59:45;6.30;;;3.38;;
63784;SDS011;49927;48.146;11.420;2022-08-11T11:02:12;5.85;;;3.13;;
63784;SDS011;49927;48.146;11.420;2022-08-11T11:04:39;3.70;;;2.53;;
63784;SDS011;49927;48.146;11.420;2022-08-11T11:07:14;3.78;;;2.83;;
63784;SDS011;49927;48.146;11.420;2022-08-11T11:09:43;4.25;;;2.30;;
63784;SDS011;49927;48.146;11.420;2022-08-11T11:12:13;4.45;;;2.72;;
63784;SDS011;49927;48.146;11.420;2022-08-11T11:14:43;4.50;;;2.70;;
63784;SDS011;49927;48.146;11.420;2022-08-11T11:17:10;8.18;;;3.35;;
63784;SDS011;49927;48.146;11.420;2022-08-11T11:19:36;4.68;;;3.33;;
63784;SDS011;49927;48.146;11.420;2022-08-11T11:22:03;4.68;;;2.97;;
63784;SDS011;49927;48.146;11.420;2022-08-11T11:24:29;3.20;;;2.65;;
63784;SDS011;49927;48.146;11.420;2022-08-11T11:26:59;3.50;;;3.17;;
63784;SDS011;49927;48.146;11.420;2022-08-11T11:29:31;13.50;;;3.15;;
63784;SDS011;49927;48.146;11.420;2022-08-11T11:32:19;3.50;;;2.88;;
63784;SDS011;49927;48.146;11.420;2022-08-11T11:37:49;4.75;;;2.90;;
63784;SDS011;49927;48.146;11.420;2022-08-11T11:40:15;5.47;;;3.45;;
63784;SDS011;49927;48.146;11.420;2022-08-11T11:42:44;3.53;;;2.88;;
63784;SDS011;49927;48.146;11.420;2022-08-11T11:45:10;2.92;;;2.65;;
63784;SDS011;49927;48.146;11.420;2022-08-11T11:47:38;4.22;;;2.67;;
63784;SDS011;49927;48.146;11.420;2022-08-11T11:50:04;7.10;;;3.10;;
63784;SDS011;49927;48.146;11.420;2022-08-11T11:52:31;5.90;;;2.88;;
63784;SDS011;49927;48.146;11.420;2022-08-11T11:54:57;3.47;;;2.60;;
63784;SDS011;49927;48.146;11.420;2022-08-11T11:57:23;5.15;;;2.50;;
63784;SDS011;49927;48.146;11.420;2022-08-11T11:59:49;5.50;;;2.78;;
63784;SDS011;49927;48.146;11.420;2022-08-11T12:02:15;3.63;;;2.70;;
63784;SDS011;49927;48.146;11.420;2022-08-11T12:04:43;4.47;;;2.53;;
63784;SDS011;49927;48.146;11.420;2022-08-11T12:07:09;7.00;;;3.08;;
63784;SDS011;49927;48.146;11.420;2022-08-11T12:09:35;2.85;;;2.35;;
63784;SDS011;49927;48.146;11.420;2022-08-11T12:12:01;3.42;;;3.05;;
63784;SDS011;49927;48.146;11.420;2022-08-11T12:14:27;2.88;;;2.53;;
63784;SDS011;49927;48.146;11.420;2022-08-11T12:16:53;3.30;;;2.53;;
63784;SDS011;49927;48.146;11.420;2022-08-11T12:19:22;2.75;;;2.53;;
63784;SDS011;49927;48.146;11.420;2022-08-11T12:21:50;4.90;;;3.28;;
63784;SDS011;49927;48.146;11.420;2022-08-11T12:24:16;3.17;;;2.30;;
63784;SDS011;49927;48.146;11.420;2022-08-11T12:26:42;4.30;;;2.78;;
63784;SDS011;49927;48.146;11.420;2022-08-11T12:29:08;3.28;;;2.92;;
63784;SDS011;49927;48.146;11.420;2022-08-11T12:31:35;3.22;;;2.72;;
63784;SDS011;49927;48.146;11.420;2022-08-11T12:34:03;4.82;;;3.00;;
63784;SDS011;49927;48.146;11.420;2022-08-11T12:36:29;3.28;;;2.72;;
63784;SDS011;49927;48.146;11.420;2022-08-11T12:39:00;4.07;;;2.75;;
63784;SDS011;49927;48.146;11.420;2022-08-11T12:41:27;7.50;;;2.90;;
63784;SDS011;49927;48.146;11.420;2022-08-11T12:43:54;4.47;;;2.80;;
63784;SDS011;49927;48.146;11.420;2022-08-11T12:46:21;2.92;;;2.63;;
63784;SDS011;49927;48.146;11.420;2022-08-11T12:48:48;3.25;;;2.95;;
63784;SDS011;49927;48.146;11.420;2022-08-11T12:51:18;5.90;;;2.40;;
63784;SDS011;49927;48.146;11.420;2022-08-11T12:53:49;3.55;;;2.75;;
63784;SDS011;49927;48.146;11.420;2022-08-11T12:56:18;2.67;;;2.38;;
63784;SDS011;49927;48.146;11.420;2022-08-11T12:58:44;5.30;;;2.75;;
63784;SDS011;49927;48.146;11.420;2022-08-11T13:01:10;4.45;;;2.30;;
63784;SDS011;49927;48.146;11.420;2022-08-11T13:03:36;4.35;;;2.60;;
63784;SDS011;49927;48.146;11.420;2022-08-11T13:06:03;3.08;;;2.47;;
63784;SDS011;49927;48.146;11.420;2022-08-11T13:08:30;3.67;;;2.30;;
63784;SDS011;49927;48.146;11.420;2022-08-11T13:10:58;2.60;;;2.40;;
63784;SDS011;49927;48.146;11.420;2022-08-11T13:13:26;4.90;;;2.70;;
63784;SDS011;49927;48.146;11.420;2022-08-11T13:15:52;5.43;;;2.65;;
63784;SDS011;49927;48.146;11.420;2022-08-11T13:18:18;2.60;;;2.40;;
63784;SDS011;49927;48.146;11.420;2022-08-11T13:20:45;3.47;;;2.30;;
63784;SDS011;49927;48.146;11.420;2022-08-11T13:23:11;2.70;;;2.50;;
63784;SDS011;49927;48.146;11.420;2022-08-11T13:25:37;4.20;;;2.42;;
63784;SDS011;49927;48.146;11.420;2022-08-11T13:28:02;3.03;;;2.65;;
63784;SDS011;49927;48.146;11.420;2022-08-11T13:30:30;4.13;;;2.60;;
63784;SDS011;49927;48.146;11.420;2022-08-11T13:32:56;8.40;;;2.92;;
63784;SDS011;49927;48.146;11.420;2022-08-11T13:35:21;3.85;;;2.65;;
63784;SDS011;49927;48.146;11.420;2022-08-11T13:37:47;3.90;;;2.28;;
63784;SDS011;49927;48.146;11.420;2022-08-11T13:40:13;6.47;;;2.65;;
63784;SDS011;49927;48.146;11.420;2022-08-11T13:42:40;2.78;;;2.17;;
63784;SDS011;49927;48.146;11.420;2022-08-11T13:45:06;4.90;;;2.38;;
63784;SDS011;49927;48.146;11.420;2022-08-11T13:47:34;5.30;;;2.38;;
63784;SDS011;49927;48.146;11.420;2022-08-11T13:50:01;4.65;;;2.70;;
63784;SDS011;49927;48.146;11.420;2022-08-11T13:52:27;2.90;;;2.55;;
63784;SDS011;49927;48.146;11.420;2022-08-11T13:54:53;3.10;;;2.17;;
63784;SDS011;49927;48.146;11.420;2022-08-11T13:57:19;4.00;;;2.33;;
63784;SDS011;49927;48.146;11.420;2022-08-11T13:59:45;3.70;;;2.55;;
63784;SDS011;49927;48.146;11.420;2022-08-11T14:02:13;4.38;;;2.20;;
63784;SDS011;49927;48.146;11.420;2022-08-11T14:04:42;2.92;;;2.28;;
63784;SDS011;49927;48.146;11.420;2022-08-11T14:07:10;2.47;;;2.17;;
63784;SDS011;49927;48.146;11.420;2022-08-11T14:09:37;4.88;;;2.53;;
63784;SDS011;49927;48.146;11.420;2022-08-11T14:12:06;3.70;;;2.40;;
63784;SDS011;49927;48.146;11.420;2022-08-11T14:14:35;3.95;;;2.35;;
63784;SDS011;49927;48.146;11.420;2022-08-11T14:17:03;3.22;;;2.40;;
63784;SDS011;49927;48.146;11.420;2022-08-11T14:19:30;4.72;;;2.67;;
63784;SDS011;49927;48.146;11.420;2022-08-11T14:21:58;4.50;;;2.60;;
63784;SDS011;49927;48.146;11.420;2022-08-11T14:24:25;3.28;;;2.88;;
63784;SDS011;49927;48.146;11.420;2022-08-11T14:26:52;2.83;;;2.28;;
63784;SDS011;49927;48.146;11.420;2022-08-11T14:29:19;7.20;;;2.30;;
63784;SDS011;49927;48.146;11.420;2022-08-11T14:31:46;3.33;;;2.30;;
63784;SDS011;49927;48.146;11.420;2022-08-11T14:34:13;2.30;;;2.10;;
63784;SDS011;49927;48.146;11.420;2022-08-11T14:36:39;5.00;;;2.50;;
63784;SDS011;49927;48.146;11.420;2022-08-11T14:39:09;2.42;;;2.22;;
63784;SDS011;49927;48.146;11.420;2022-08-11T14:41:35;2.47;;;2.10;;
63784;SDS011;49927;48.146;11.420;2022-08-11T14:44:02;2.45;;;2.17;;
63784;SDS011;49927;48.146;11.420;2022-08-11T14:46:28;3.25;;;2.20;;
63784;SDS011;49927;48.146;11.420;2022-08-11T14:48:54;2.53;;;2.20;;
63784;SDS011;49927;48.146;11.420;2022-08-11T14:51:20;3.63;;;2.30;;
63784;SDS011;49927;48.146;11.420;2022-08-11T14:53:46;4.88;;;2.40;;
63784;SDS011;49927;48.146;11.420;2022-08-11T14:56:13;3.03;;;2.35;;
63784;SDS011;49927;48.146;11.420;2022-08-11T14:58:38;2.33;;;2.00;;
63784;SDS011;49927;48.146;11.420;2022-08-11T15:01:04;2.67;;;2.47;;
63784;SDS011;49927;48.146;11.420;2022-08-11T15:03:30;2.67;;;2.47;;
63784;SDS011;49927;48.146;11.420;2022-08-11T15:05:57;2.67;;;2.25;;
63784;SDS011;49927;48.146;11.420;2022-08-11T15:08:27;2.47;;;2.10;;
63784;SDS011;49927;48.146;11.420;2022-08-11T15:10:53;2.67;;;2.22;;
63784;SDS011;49927;48.146;11.420;2022-08-11T15:13:20;2.78;;;2.40;;
63784;SDS011;49927;48.146;11.420;2022-08-11T15:15:45;7.75;;;2.58;;
63784;SDS011;49927;48.146;11.420;2022-08-11T15:18:12;6.10;;;2.20;;
63784;SDS011;49927;48.146;11.420;2022-08-11T15:20:38;2.85;;;2.47;;
63784;SDS011;49927;48.146;11.420;2022-08-11T15:23:04;4.03;;;2.20;;
63784;SDS011;49927;48.146;11.420;2022-08-11T15:25:30;3.25;;;1.90;;
63784;SDS011;49927;48.146;11.420;2022-08-11T15:27:56;2.10;;;1.90;;
63784;SDS011;49927;48.146;11.420;2022-08-11T15:30:23;6.28;;;2.30;;
63784;SDS011;49927;48.146;11.420;2022-08-11T15:32:50;2.97;;;2.10;;
63784;SDS011;49927;48.146;11.420;2022-08-11T15:35:16;3.47;;;2.20;;